createdAt,value
2023-05-01T00:01:29.074Z,12.69
2023-05-01T00:04:14.198Z,12.62
2023-05-01T00:06:59.518Z,12.52
2023-05-01T00:09:44.609Z,12.42
2023-05-01T00:12:29.683Z,12.55
2023-05-01T00:15:14.641Z,12.57
2023-05-01T00:17:59.990Z,12.46
2023-05-01T00:20:45.158Z,12.58
2023-05-01T00:23:30.064Z,12.58
2023-05-01T00:26:15.230Z,12.56
2023-05-01T00:29:00.365Z,12.49
2023-05-01T00:31:45.878Z,12.58
2023-05-01T00:34:31.249Z,12.58
2023-05-01T00:37:17.440Z,12.53
2023-05-01T00:40:03.013Z,12.46
2023-05-01T00:42:48.255Z,12.38
2023-05-01T00:45:33.638Z,12.40
2023-05-01T00:48:18.898Z,12.33
2023-05-01T00:51:07.774Z,12.34
2023-05-01T00:53:53.964Z,12.30
2023-05-01T00:56:39.213Z,12.24
2023-05-01T00:59:24.525Z,12.12
2023-05-01T01:02:09.975Z,12.08
2023-05-01T01:04:55.447Z,12.03
2023-05-01T01:07:50.951Z,12.01
2023-05-01T01:10:51.058Z,11.90
2023-05-01T01:13:59.378Z,11.85
2023-05-01T01:16:57.474Z,11.80
2023-05-01T01:20:14.986Z,11.65
2023-05-01T01:23:22.063Z,11.56
2023-05-01T01:26:29.267Z,11.60
2023-05-01T01:29:39.441Z,11.59
2023-05-01T01:32:49.377Z,11.60
2023-05-01T01:35:38.634Z,11.47
2023-05-01T01:38:30.669Z,11.53
2023-05-01T01:41:24.156Z,11.45
2023-05-01T01:44:24.349Z,11.51
2023-05-01T01:47:12.682Z,11.48
2023-05-01T01:50:04.306Z,11.37
2023-05-01T01:52:51.772Z,11.23
2023-05-01T01:55:40.292Z,11.24
2023-05-01T01:58:27.523Z,11.22
2023-05-01T02:01:15.792Z,11.23
2023-05-01T02:04:03.379Z,11.24
2023-05-01T02:06:49.774Z,11.20
2023-05-01T02:09:35.812Z,11.22
2023-05-01T02:12:21.396Z,11.21
2023-05-01T02:15:08.816Z,11.23
2023-05-01T02:17:54.791Z,11.18
2023-05-01T02:20:42.467Z,11.17
2023-05-01T02:23:29.261Z,11.04
2023-05-01T02:26:19.372Z,11.08
2023-05-01T02:29:07.469Z,10.96
2023-05-01T02:31:52.753Z,10.98
2023-05-01T02:34:37.802Z,10.91
2023-05-01T02:37:23.690Z,10.83
2023-05-01T02:40:11.349Z,10.84
2023-05-01T02:42:57.288Z,10.79
2023-05-01T02:45:43.772Z,10.74
2023-05-01T02:48:30.714Z,10.70
2023-05-01T02:51:16.702Z,10.71
2023-05-01T02:54:03.230Z,10.69
2023-05-01T02:56:48.139Z,10.63
2023-05-01T02:59:33.816Z,10.57
2023-05-01T03:02:18.962Z,10.51
2023-05-01T03:05:04.057Z,10.47
2023-05-01T03:07:49.313Z,10.47
2023-05-01T03:10:34.435Z,10.43
2023-05-01T03:13:19.682Z,10.38
2023-05-01T03:16:05.497Z,10.37
2023-05-01T03:18:50.381Z,10.37
2023-05-01T03:21:37.005Z,10.34
2023-05-01T03:24:22.055Z,10.32
2023-05-01T03:27:07.651Z,10.31
2023-05-01T03:29:53.031Z,10.20
2023-05-01T03:32:38.338Z,10.11
2023-05-01T03:35:23.501Z,10.16
2023-05-01T03:38:08.738Z,10.00
2023-05-01T03:40:53.868Z,10.05
2023-05-01T03:43:38.950Z,9.96
2023-05-01T03:46:24.232Z,9.90
2023-05-01T03:49:09.331Z,9.85
2023-05-01T03:51:54.324Z,9.84
2023-05-01T03:54:39.459Z,9.83
2023-05-01T03:57:24.897Z,9.82
2023-05-01T04:00:11.755Z,9.86
2023-05-01T04:02:57.657Z,9.80
2023-05-01T04:05:43.280Z,9.68
2023-05-01T04:08:28.399Z,9.73
2023-05-01T04:11:13.536Z,9.56
2023-05-01T04:13:58.633Z,9.67
2023-05-01T04:16:43.739Z,9.55
2023-05-01T04:19:28.962Z,9.50
2023-05-01T04:22:14.202Z,9.57
2023-05-01T04:24:59.633Z,9.53
2023-05-01T04:27:44.772Z,9.54
2023-05-01T04:30:31.189Z,9.56
2023-05-01T04:33:16.379Z,9.54
2023-05-01T04:36:01.650Z,9.56
2023-05-01T04:38:47.142Z,9.52
2023-05-01T04:41:32.366Z,9.54
2023-05-01T04:44:17.365Z,9.43
2023-05-01T04:47:02.909Z,9.41
2023-05-01T04:49:48.275Z,9.27
2023-05-01T04:52:33.172Z,9.28
2023-05-01T04:55:18.612Z,9.41
2023-05-01T04:58:04.868Z,9.45
2023-05-01T05:00:49.942Z,9.52
2023-05-01T05:03:35.461Z,9.49
2023-05-01T05:06:21.234Z,9.50
2023-05-01T05:09:06.266Z,9.52
2023-05-01T05:11:51.256Z,9.69
2023-05-01T05:14:36.297Z,9.72
2023-05-01T05:17:21.381Z,9.77
2023-05-01T05:20:07.524Z,9.76
2023-05-01T05:22:52.762Z,9.80
2023-05-01T05:25:38.187Z,9.87
2023-05-01T05:28:23.855Z,9.92
2023-05-01T05:31:08.877Z,10.01
2023-05-01T05:33:53.866Z,10.05
2023-05-01T05:36:38.952Z,10.01
2023-05-01T05:39:24.033Z,9.96
2023-05-01T05:42:09.101Z,10.04
2023-05-01T05:44:54.072Z,10.00
2023-05-01T05:47:39.250Z,10.14
2023-05-01T05:50:24.562Z,10.17
2023-05-01T05:53:10.009Z,10.17
2023-05-01T05:55:55.277Z,10.22
2023-05-01T05:58:40.618Z,10.35
2023-05-01T06:01:32.443Z,10.49
2023-05-01T06:04:17.729Z,10.57
2023-05-01T06:07:02.719Z,10.64
2023-05-01T06:09:48.196Z,10.64
2023-05-01T06:12:35.221Z,10.65
2023-05-01T06:15:24.909Z,10.72
2023-05-01T06:18:09.854Z,10.69
2023-05-01T06:20:55.217Z,10.69
2023-05-01T06:23:40.199Z,10.84
2023-05-01T06:26:26.365Z,10.89
2023-05-01T06:29:11.524Z,10.93
2023-05-01T06:31:56.662Z,11.02
2023-05-01T06:34:41.968Z,11.18
2023-05-01T06:37:27.220Z,11.28
2023-05-01T06:40:12.624Z,11.40
2023-05-01T06:42:58.104Z,11.42
2023-05-01T06:45:43.396Z,11.51
2023-05-01T06:48:28.470Z,11.62
2023-05-01T06:51:16.411Z,11.63
2023-05-01T06:54:02.078Z,11.63
2023-05-01T06:56:47.405Z,11.58
2023-05-01T06:59:32.540Z,11.56
2023-05-01T07:02:17.897Z,11.56
2023-05-01T07:05:05.569Z,11.64
2023-05-01T07:08:00.776Z,11.77
2023-05-01T07:10:47.018Z,11.87
2023-05-01T07:13:32.276Z,11.90
2023-05-01T07:16:17.187Z,12.00
2023-05-01T07:19:02.230Z,12.07
2023-05-01T07:21:47.177Z,12.17
2023-05-01T07:24:32.475Z,12.32
2023-05-01T07:27:17.800Z,12.30
2023-05-01T07:30:04.811Z,12.52
2023-05-01T07:32:50.577Z,12.50
2023-05-01T07:35:35.983Z,12.58
2023-05-01T07:38:21.232Z,12.55
2023-05-01T07:41:06.685Z,12.64
2023-05-01T07:43:51.642Z,12.62
2023-05-01T07:46:37.058Z,12.79
2023-05-01T07:49:22.485Z,12.89
2023-05-01T07:52:07.839Z,12.91
2023-05-01T07:54:53.212Z,12.92
2023-05-01T07:57:38.634Z,12.94
2023-05-01T08:00:23.890Z,12.97
2023-05-01T08:03:09.246Z,13.00
2023-05-01T08:05:54.899Z,12.95
2023-05-01T08:08:40.508Z,12.94
2023-05-01T08:11:26.557Z,12.99
2023-05-01T08:14:11.916Z,12.98
2023-05-01T08:16:57.245Z,13.00
2023-05-01T08:19:42.508Z,13.06
2023-05-01T08:22:27.360Z,13.22
2023-05-01T08:25:13.599Z,13.35
2023-05-01T08:27:58.905Z,13.38
2023-05-01T08:30:44.461Z,13.41
2023-05-01T08:33:29.629Z,13.45
2023-05-01T08:36:15.203Z,13.45
2023-05-01T08:39:00.642Z,13.49
2023-05-01T08:41:47.235Z,13.55
2023-05-01T08:44:32.792Z,13.50
2023-05-01T08:47:19.013Z,13.56
2023-05-01T08:50:09.429Z,13.49
2023-05-01T08:52:56.474Z,13.47
2023-05-01T08:55:45.475Z,13.46
2023-05-01T08:58:34.220Z,13.54
2023-05-01T09:01:22.348Z,13.55
2023-05-01T09:04:09.690Z,13.58
2023-05-01T09:06:56.498Z,13.63
2023-05-01T09:09:41.928Z,13.60
2023-05-01T09:12:27.681Z,13.64
2023-05-01T09:15:13.326Z,13.79
2023-05-01T09:18:02.932Z,13.88
2023-05-01T09:20:48.906Z,13.99
2023-05-01T09:23:35.983Z,14.21
2023-05-01T09:26:21.964Z,14.55
2023-05-01T09:29:07.681Z,14.59
2023-05-01T09:31:52.957Z,14.66
2023-05-01T09:34:38.223Z,14.59
2023-05-01T09:37:32.359Z,14.73
2023-05-01T09:40:17.447Z,14.96
2023-05-01T09:43:03.035Z,15.17
2023-05-01T09:46:00.477Z,15.36
2023-05-01T09:48:59.351Z,15.50
2023-05-01T09:51:44.756Z,15.62
2023-05-01T09:54:29.704Z,15.94
2023-05-01T09:57:15.643Z,16.14
2023-05-01T10:00:08.355Z,16.06
2023-05-01T10:02:54.248Z,16.02
2023-05-01T10:05:44.180Z,15.83
2023-05-01T10:08:46.809Z,15.77
2023-05-01T10:11:47.138Z,15.70
2023-05-01T10:14:38.559Z,15.74
2023-05-01T10:17:23.819Z,15.60
2023-05-01T10:20:11.477Z,15.69
2023-05-01T10:22:56.758Z,15.73
2023-05-01T10:25:42.409Z,15.79
2023-05-01T10:28:28.781Z,16.04
2023-05-01T10:31:14.146Z,16.37
2023-05-01T10:34:03.124Z,16.77
2023-05-01T10:37:07.074Z,16.85
2023-05-01T10:39:52.007Z,16.73
2023-05-01T10:43:16.969Z,16.50
2023-05-01T10:46:08.051Z,16.32
2023-05-01T10:48:54.336Z,16.18
2023-05-01T10:51:58.412Z,16.19
2023-05-01T10:54:43.566Z,16.39
2023-05-01T10:57:43.715Z,16.54
2023-05-01T11:00:28.843Z,16.64
2023-05-01T11:03:23.086Z,16.73
2023-05-01T11:06:08.645Z,16.78
2023-05-01T11:08:54.790Z,16.78
2023-05-01T11:11:40.034Z,17.02
2023-05-01T11:14:25.714Z,17.25
2023-05-01T11:17:10.610Z,17.38
2023-05-01T11:19:56.557Z,17.58
2023-05-01T11:22:49.013Z,17.72
2023-05-01T11:25:34.301Z,17.73
2023-05-01T11:28:21.542Z,17.63
2023-05-01T11:31:06.888Z,17.93
2023-05-01T11:33:52.403Z,17.96
2023-05-01T11:36:49.833Z,17.89
2023-05-01T11:39:35.042Z,17.92
2023-05-01T11:42:22.632Z,17.92
2023-05-01T11:45:11.165Z,18.16
2023-05-01T11:47:56.551Z,18.18
2023-05-01T11:50:42.038Z,18.39
2023-05-01T11:53:27.645Z,18.43
2023-05-01T11:56:27.264Z,18.67
2023-05-01T11:59:18.873Z,18.79
2023-05-01T12:02:03.942Z,19.02
2023-05-01T12:04:49.112Z,19.53
2023-05-01T12:07:37.481Z,19.59
2023-05-01T12:10:23.144Z,19.16
2023-05-01T12:13:10.249Z,18.98
2023-05-01T12:15:56.249Z,19.17
2023-05-01T12:18:42.980Z,19.86
2023-05-01T12:21:28.150Z,19.78
2023-05-01T12:24:18.730Z,19.90
2023-05-01T12:27:04.051Z,20.40
2023-05-01T12:29:49.279Z,20.37
2023-05-01T12:32:34.716Z,20.37
2023-05-01T12:35:20.289Z,20.93
2023-05-01T12:38:17.285Z,20.48
2023-05-01T12:41:02.710Z,20.59
2023-05-01T12:43:47.931Z,20.59
2023-05-01T12:46:33.120Z,20.38
2023-05-01T12:49:19.148Z,20.74
2023-05-01T12:52:06.310Z,21.33
2023-05-01T12:54:51.632Z,21.10
2023-05-01T12:57:51.532Z,20.64
2023-05-01T13:00:54.672Z,20.53
2023-05-01T13:03:44.711Z,20.24
2023-05-01T13:06:36.231Z,20.30
2023-05-01T13:09:27.244Z,20.08
2023-05-01T13:12:12.455Z,20.13
2023-05-01T13:14:58.915Z,20.27
2023-05-01T13:17:44.429Z,20.12
2023-05-01T13:20:30.256Z,19.98
2023-05-01T13:23:15.637Z,19.90
2023-05-01T13:26:01.010Z,20.15
2023-05-01T13:28:46.954Z,20.20
2023-05-01T13:31:32.285Z,20.10
2023-05-01T13:34:25.559Z,20.10
2023-05-01T13:37:14.648Z,19.94
2023-05-01T13:39:59.938Z,19.95
2023-05-01T13:42:46.000Z,19.83
2023-05-01T13:45:31.259Z,19.75
2023-05-01T13:48:17.732Z,19.72
2023-05-01T13:51:02.674Z,19.51
2023-05-01T13:53:47.874Z,19.60
2023-05-01T13:56:35.365Z,19.74
2023-05-01T13:59:20.250Z,19.77
2023-05-01T14:02:29.279Z,19.66
2023-05-01T14:05:16.179Z,19.92
2023-05-01T14:08:02.145Z,20.21
2023-05-01T14:10:47.517Z,20.36
2023-05-01T14:13:33.346Z,20.53
2023-05-01T14:16:26.927Z,20.78
2023-05-01T14:19:14.959Z,20.71
2023-05-01T14:22:00.214Z,20.65
2023-05-01T14:24:46.029Z,20.54
2023-05-01T14:27:31.502Z,20.31
2023-05-01T14:30:26.792Z,20.09
2023-05-01T14:33:13.311Z,19.99
2023-05-01T14:35:58.647Z,20.06
2023-05-01T14:38:46.683Z,20.07
2023-05-01T14:41:32.067Z,19.98
2023-05-01T14:44:20.129Z,20.02
2023-05-01T14:47:09.415Z,20.04
2023-05-01T14:49:54.564Z,20.03
2023-05-01T14:52:39.724Z,19.81
2023-05-01T14:55:30.784Z,19.64
2023-05-01T14:58:15.869Z,19.42
2023-05-01T15:01:02.491Z,19.41
2023-05-01T15:03:47.984Z,19.30
2023-05-01T15:06:34.418Z,19.09
2023-05-01T15:09:19.589Z,19.01
2023-05-01T15:12:07.261Z,18.86
2023-05-01T15:14:52.676Z,18.95
2023-05-01T15:17:37.730Z,19.60
2023-05-01T15:20:23.118Z,19.76
2023-05-01T15:23:09.156Z,20.38
2023-05-01T15:25:54.720Z,20.10
2023-05-01T15:28:39.907Z,19.80
2023-05-01T15:31:25.443Z,19.82
2023-05-01T15:34:10.465Z,19.63
2023-05-01T15:36:55.584Z,19.56
2023-05-01T15:39:40.702Z,19.34
2023-05-01T15:42:26.210Z,19.35
2023-05-01T15:45:11.696Z,19.26
2023-05-01T15:47:56.600Z,19.21
2023-05-01T15:50:41.796Z,19.04
2023-05-01T15:53:26.732Z,18.90
2023-05-01T15:56:11.771Z,18.87
2023-05-01T15:58:56.932Z,18.70
2023-05-01T16:01:42.448Z,18.57
2023-05-01T16:04:27.777Z,18.44
2023-05-01T16:07:13.056Z,18.43
2023-05-01T16:09:58.552Z,18.43
2023-05-01T16:12:43.951Z,18.49
2023-05-01T16:15:30.456Z,18.40
2023-05-01T16:18:20.692Z,18.45
2023-05-01T16:21:05.957Z,18.49
2023-05-01T16:23:54.596Z,18.67
2023-05-01T16:26:41.457Z,18.89
2023-05-01T16:29:26.940Z,19.06
2023-05-01T16:32:13.599Z,19.06
2023-05-01T16:34:58.734Z,19.06
2023-05-01T16:37:44.174Z,19.02
2023-05-01T16:40:29.254Z,19.14
2023-05-01T16:43:14.525Z,19.01
2023-05-01T16:45:59.621Z,18.82
2023-05-01T16:48:44.868Z,18.77
2023-05-01T16:51:30.133Z,18.67
2023-05-01T16:54:15.985Z,18.63
2023-05-01T16:57:03.173Z,18.52
2023-05-01T16:59:48.123Z,18.38
2023-05-01T17:02:33.649Z,18.35
2023-05-01T17:05:18.698Z,18.39
2023-05-01T17:08:03.880Z,18.47
2023-05-01T17:10:49.027Z,18.52
2023-05-01T17:13:34.300Z,18.62
2023-05-01T17:16:19.530Z,18.61
2023-05-01T17:19:08.896Z,18.54
2023-05-01T17:21:54.231Z,18.59
2023-05-01T17:24:39.605Z,18.52
2023-05-01T17:27:24.770Z,18.52
2023-05-01T17:30:10.058Z,18.50
2023-05-01T17:32:57.100Z,18.40
2023-05-01T17:35:42.421Z,18.39
2023-05-01T17:38:27.565Z,18.27
2023-05-01T17:41:12.588Z,18.12
2023-05-01T17:43:58.040Z,18.23
2023-05-01T17:46:43.330Z,18.12
2023-05-01T17:49:28.509Z,17.96
2023-05-01T17:52:13.853Z,17.88
2023-05-01T17:54:59.202Z,17.85
2023-05-01T17:57:45.682Z,17.89
2023-05-01T18:00:31.581Z,17.76
2023-05-01T18:03:16.981Z,17.68
2023-05-01T18:06:02.744Z,17.64
2023-05-01T18:08:49.876Z,17.68
2023-05-01T18:11:34.880Z,17.68
2023-05-01T18:14:20.021Z,17.59
2023-05-01T18:17:05.238Z,17.46
2023-05-01T18:19:50.634Z,17.35
2023-05-01T18:22:35.902Z,17.30
2023-05-01T18:25:21.256Z,17.26
2023-05-01T18:28:06.560Z,17.18
2023-05-01T18:30:52.018Z,17.16
2023-05-01T18:33:37.218Z,17.06
2023-05-01T18:36:22.287Z,17.02
2023-05-01T18:39:07.630Z,16.95
2023-05-01T18:41:54.859Z,16.77
2023-05-01T18:44:40.080Z,16.81
2023-05-01T18:47:26.371Z,16.75
2023-05-01T18:50:11.659Z,16.68
2023-05-01T18:52:57.040Z,16.53
2023-05-01T18:55:41.845Z,16.56
2023-05-01T18:58:27.514Z,16.51
2023-05-01T19:01:12.750Z,16.44
2023-05-01T19:03:59.971Z,16.38
2023-05-01T19:06:45.526Z,16.30
2023-05-01T19:09:30.920Z,16.28
2023-05-01T19:12:16.473Z,16.22
2023-05-01T19:15:02.057Z,16.16
2023-05-01T19:17:47.464Z,16.09
2023-05-01T19:20:35.489Z,15.97
2023-05-01T19:23:20.765Z,15.96
2023-05-01T19:26:06.433Z,15.95
2023-05-01T19:28:51.509Z,15.93
2023-05-01T19:31:37.068Z,15.91
2023-05-01T19:34:22.129Z,15.84
2023-05-01T19:37:07.325Z,15.76
2023-05-01T19:39:52.394Z,15.58
2023-05-01T19:42:37.427Z,15.70
2023-05-01T19:45:23.083Z,15.69
2023-05-01T19:48:08.367Z,15.65
2023-05-01T19:50:53.591Z,15.62
2023-05-01T19:53:39.056Z,15.63
2023-05-01T19:56:25.229Z,15.64
2023-05-01T19:59:10.240Z,15.63
2023-05-01T20:01:55.321Z,15.60
2023-05-01T20:04:40.689Z,15.51
2023-05-01T20:07:27.151Z,15.52
2023-05-01T20:10:11.996Z,15.42
2023-05-01T20:12:56.888Z,15.48
2023-05-01T20:15:43.148Z,15.39
2023-05-01T20:18:29.114Z,15.33
2023-05-01T20:21:14.386Z,15.25
2023-05-01T20:23:59.443Z,15.15
2023-05-01T20:26:44.680Z,15.19
2023-05-01T20:29:29.767Z,15.19
2023-05-01T20:32:14.863Z,15.07
2023-05-01T20:35:00.358Z,15.14
2023-05-01T20:37:45.542Z,15.07
2023-05-01T20:40:31.940Z,15.03
2023-05-01T20:43:16.984Z,14.96
2023-05-01T20:46:02.179Z,14.89
2023-05-01T20:48:47.555Z,14.82
2023-05-01T20:51:32.679Z,14.83
2023-05-01T20:54:17.605Z,14.87
2023-05-01T20:57:03.872Z,14.76
2023-05-01T20:59:50.130Z,14.78
2023-05-01T21:02:39.628Z,14.75
2023-05-01T21:05:24.834Z,14.72
2023-05-01T21:08:10.188Z,14.73
2023-05-01T21:10:55.530Z,14.71
2023-05-01T21:13:40.611Z,14.72
2023-05-01T21:16:28.037Z,14.70
2023-05-01T21:19:15.117Z,14.69
2023-05-01T21:22:00.497Z,14.67
2023-05-01T21:24:51.724Z,14.66
2023-05-01T21:27:40.633Z,14.67
2023-05-01T21:30:34.214Z,14.66
2023-05-01T21:33:19.793Z,14.56
2023-05-01T21:36:05.253Z,14.58
2023-05-01T21:38:50.360Z,14.53
2023-05-01T21:41:35.626Z,14.53
2023-05-01T21:44:22.581Z,14.46
2023-05-01T21:47:09.049Z,14.49
2023-05-01T21:49:57.368Z,14.49
2023-05-01T21:52:43.875Z,14.49
2023-05-01T21:55:29.850Z,14.43
2023-05-01T21:58:15.375Z,14.34
2023-05-01T22:01:00.778Z,14.24
2023-05-01T22:03:46.869Z,14.23
2023-05-01T22:06:32.431Z,14.24
2023-05-01T22:09:17.474Z,14.25
2023-05-01T22:12:02.508Z,14.13
2023-05-01T22:14:48.566Z,14.17
2023-05-01T22:17:33.860Z,14.08
2023-05-01T22:20:18.921Z,14.08
2023-05-01T22:23:04.376Z,14.05
2023-05-01T22:25:49.722Z,14.01
2023-05-01T22:28:34.885Z,14.03
2023-05-01T22:31:20.301Z,14.04
2023-05-01T22:34:06.690Z,14.03
2023-05-01T22:36:51.730Z,13.95
2023-05-01T22:39:36.765Z,13.99
2023-05-01T22:42:23.249Z,13.95
2023-05-01T22:45:08.899Z,13.94
2023-05-01T22:47:54.424Z,13.79
2023-05-01T22:50:39.801Z,13.73
2023-05-01T22:53:24.738Z,13.69
2023-05-01T22:56:09.878Z,13.52
2023-05-01T22:58:55.446Z,13.53
2023-05-01T23:01:40.720Z,13.46
2023-05-01T23:04:25.904Z,13.36
2023-05-01T23:07:13.788Z,13.30
2023-05-01T23:09:59.322Z,13.35
2023-05-01T23:12:45.862Z,13.28
2023-05-01T23:15:31.143Z,13.24
2023-05-01T23:18:23.607Z,13.22
2023-05-01T23:21:10.800Z,13.15
2023-05-01T23:23:55.786Z,13.03
2023-05-01T23:26:41.441Z,13.03
2023-05-01T23:29:26.788Z,12.99
2023-05-01T23:32:22.072Z,12.85
2023-05-01T23:35:15.459Z,12.90
2023-05-01T23:38:00.338Z,12.82
2023-05-01T23:40:45.986Z,12.73
2023-05-01T23:43:32.628Z,12.70
2023-05-01T23:46:17.689Z,12.62
2023-05-01T23:49:03.011Z,12.54
2023-05-01T23:51:48.171Z,12.52
2023-05-01T23:54:33.482Z,12.49
2023-05-01T23:57:18.682Z,12.35
